Time;durP1;ratioP1;P1;durP2;ratioP2;P2;SDS_P1;SDS_P2;PMS_P1;PMS_P2;Temp;Humidity;BMP_temperature;BMP_pressure;BME280_temperature;BME280_humidity;BME280_pressure;Samples;Min_cycle;Max_cycle;Signal;HPM_P1;HPM_P2
2022/06/04 00:31:45;;;;;;;5.55;4.50;;;;;;;15.61;66.89;100679.17;1378431;100;21133;-95
2022/06/04 03:25:35;;;;;;;6.97;5.40;;;;;;;14.66;72.90;100630.00;1456802;94;21183;-94
2022/06/04 03:28:06;;;;;;;5.62;5.12;;;;;;;14.71;72.90;100633.70;1479756;96;21171;-95
2022/06/04 03:30:34;;;;;;;5.45;4.72;;;;;;;14.73;72.88;100634.48;1490068;96;21624;-94
2022/06/04 03:33:03;;;;;;;5.12;4.35;;;;;;;14.72;72.76;100634.11;1513758;93;21164;-95
2022/06/04 03:35:31;;;;;;;6.08;5.25;;;;;;;14.71;72.73;100632.38;1507474;95;21587;-94
2022/06/04 03:37:58;;;;;;;6.22;5.08;;;;;;;14.74;72.75;100638.82;1519845;94;21131;-95
2022/06/04 03:40:25;;;;;;;6.28;5.03;;;;;;;14.76;72.71;100636.97;1516498;94;21123;-94
2022/06/04 03:42:53;;;;;;;6.17;4.87;;;;;;;14.76;72.56;100639.61;1521099;94;22224;-94
2022/06/04 03:45:20;;;;;;;6.97;5.10;;;;;;;14.76;72.56;100633.48;1566497;86;20997;-95
2022/06/04 03:47:48;;;;;;;6.85;5.10;;;;;;;14.80;72.64;100637.66;1708122;82;21052;-94
2022/06/04 03:50:18;;;;;;;6.17;4.80;;;;;;;14.84;72.42;100649.31;1721745;83;21117;-89
2022/06/04 03:52:47;;;;;;;8.70;6.85;;;;;;;14.87;72.14;100645.66;1711485;82;21064;-93
2022/06/04 03:55:16;;;;;;;9.43;6.83;;;;;;;14.98;72.07;100643.80;1688394;83;21071;-94
2022/06/04 03:57:50;;;;;;;8.60;6.63;;;;;;;14.98;72.07;100643.80;1711698;82;21674;-94
2022/06/04 04:00:34;;;;;;;6.95;5.95;;;;;;;15.04;71.84;100644.32;1711655;82;21450;-94
2022/06/04 04:03:06;;;;;;;7.30;5.85;;;;;;;15.09;71.89;100640.14;1711428;83;21095;-94
2022/06/04 04:05:38;;;;;;;6.95;5.95;;;;;;;15.14;71.34;100641.60;1711241;82;21067;-94
2022/06/04 04:08:09;;;;;;;8.05;7.30;;;;;;;15.16;71.16;100642.39;1711490;83;21051;-94
2022/06/04 04:10:38;;;;;;;;;;;;;;;15.19;71.13;100642.69;1707942;82;20997;-93
2022/06/04 04:13:06;;;;;;;7.75;5.70;;;;;;;15.18;70.94;100649.73;1706573;82;20498;-93
2022/06/04 04:15:34;;;;;;;5.80;5.20;;;;;;;15.17;70.71;100663.03;1710420;82;21238;-89
2022/06/04 04:18:01;;;;;;;5.65;5.15;;;;;;;15.15;70.50;100693.46;1711304;83;21075;-93
2022/06/04 04:20:33;;;;;;;7.10;5.03;;;;;;;15.13;70.34;100681.27;1711340;82;21052;-94
2022/06/04 04:23:01;;;;;;;6.03;5.28;;;;;;;15.16;70.59;100662.66;1709219;83;20999;-94
2022/06/04 04:25:31;;;;;;;7.17;5.35;;;;;;;15.23;70.71;100668.46;1707672;83;21087;-93
2022/06/04 04:27:59;;;;;;;11.00;5.30;;;;;;;15.27;70.26;100692.44;1713660;83;21146;-93
2022/06/04 04:30:30;;;;;;;5.70;4.83;;;;;;;15.28;70.08;100706.05;1713817;82;21024;-94
2022/06/04 04:32:58;;;;;;;5.40;4.83;;;;;;;15.30;69.90;100681.27;1713580;82;21612;-94
2022/06/04 04:35:30;;;;;;;5.72;5.03;;;;;;;15.34;70.04;100663.00;1709516;83;21007;-93
2022/06/04 04:37:58;;;;;;;5.55;4.83;;;;;;;15.42;70.29;100681.09;1712081;82;21063;-93
2022/06/04 04:40:29;;;;;;;8.58;5.80;;;;;;;15.45;69.69;100712.63;1713706;83;21608;-94
2022/06/04 04:42:58;;;;;;;6.62;5.67;;;;;;;15.50;69.88;100689.47;1713493;83;21040;-94
2022/06/04 04:45:27;;;;;;;6.62;5.37;;;;;;;15.53;69.99;100669.95;1713571;82;21104;-92
2022/06/04 04:47:54;;;;;;;8.08;7.00;;;;;;;15.58;70.15;100689.91;1713519;82;21048;-94
2022/06/04 04:50:32;;;;;;;6.62;5.90;;;;;;;15.59;69.77;100707.94;1710774;83;21050;-95
2022/06/04 04:53:02;;;;;;;6.85;5.70;;;;;;;15.59;69.84;100696.89;1711109;83;21170;-93
2022/06/04 04:55:30;;;;;;;6.55;5.50;;;;;;;15.63;69.73;100655.33;1713663;83;27860;-93
2022/06/04 04:57:57;;;;;;;7.05;5.78;;;;;;;15.68;69.89;100674.44;1713581;82;21048;-85
2022/06/04 05:00:25;;;;;;;6.72;5.28;;;;;;;15.75;69.57;100713.30;1713672;83;21052;-94
2022/06/04 05:02:52;;;;;;;7.47;5.37;;;;;;;15.76;69.53;100709.23;1713500;82;21005;-93
2022/06/04 05:05:20;;;;;;;5.67;5.17;;;;;;;15.80;69.42;100688.80;1713853;83;21071;-93
2022/06/04 05:07:47;;;;;;;5.90;5.30;;;;;;;15.87;69.49;100679.58;1713495;82;21036;-94
2022/06/04 05:10:15;;;;;;;6.42;5.20;;;;;;;15.94;69.39;100679.64;1713744;82;21051;-94
2022/06/04 05:12:43;;;;;;;7.92;5.92;;;;;;;16.02;69.32;100699.06;1713585;82;21027;-93
2022/06/04 05:15:11;;;;;;;5.97;5.25;;;;;;;16.09;69.54;100706.17;1698281;83;21115;-95
2022/06/04 05:17:39;;;;;;;6.10;5.03;;;;;;;16.15;69.30;100697.89;1709666;82;21071;-96
2022/06/04 05:20:07;;;;;;;6.70;5.20;;;;;;;16.18;69.17;100694.60;1713517;82;21016;-92
2022/06/04 05:22:36;;;;;;;7.15;5.40;;;;;;;16.22;69.11;100693.51;1712262;83;28175;-89
2022/06/04 05:25:04;;;;;;;8.13;5.50;;;;;;;16.27;68.94;100695.44;1705967;82;21095;-92
2022/06/04 05:27:32;;;;;;;5.97;5.35;;;;;;;16.33;68.96;100702.64;1699156;83;21098;-92
2022/06/04 05:30:00;;;;;;;6.60;5.58;;;;;;;16.38;69.00;100713.34;1723750;81;21134;-88
2022/06/04 05:32:27;;;;;;;7.20;5.78;;;;;;;16.41;68.81;100718.94;1714963;81;21062;-91
2022/06/04 05:34:54;;;;;;;6.58;5.67;;;;;;;16.47;68.79;100709.33;1723696;81;21489;-88
2022/06/04 05:37:21;;;;;;;8.40;5.60;;;;;;;16.50;68.74;100707.83;1711037;82;21062;-92
2022/06/04 05:39:49;;;;;;;6.40;5.22;;;;;;;16.55;68.81;100716.36;1718706;82;21571;-84
2022/06/04 05:42:16;;;;;;;7.10;5.60;;;;;;;16.59;68.74;100721.84;1717497;81;21118;-82
2022/06/04 05:44:43;;;;;;;6.95;5.78;;;;;;;16.63;68.74;100722.55;1706234;81;21038;-90
2022/06/04 05:47:11;;;;;;;8.48;5.90;;;;;;;16.63;68.69;100710.16;1711783;82;21050;-83
2022/06/04 05:49:38;;;;;;;6.30;5.42;;;;;;;16.62;68.79;100708.91;1724392;81;21054;-83
2022/06/04 05:52:06;;;;;;;7.17;5.80;;;;;;;16.62;68.81;100713.73;1715142;81;21070;-83
2022/06/04 05:54:33;;;;;;;8.70;6.15;;;;;;;16.65;68.87;100704.77;1705642;82;21880;-91
2022/06/04 05:57:01;;;;;;;8.13;5.92;;;;;;;16.68;68.86;100706.78;1707196;81;22072;-81
2022/06/04 05:59:28;;;;;;;6.22;5.72;;;;;;;16.72;68.80;100707.45;1727065;81;21117;-90
2022/06/04 06:01:55;;;;;;;8.15;5.97;;;;;;;16.76;68.72;100701.50;1722002;81;21037;-92
2022/06/04 06:04:26;;;;;;;6.55;5.70;;;;;;;16.80;68.74;100703.08;1706134;82;21271;-92
2022/06/04 06:06:52;;;;;;;6.42;5.83;;;;;;;16.84;68.52;100713.86;1720703;81;23417;-92
2022/06/04 06:09:23;;;;;;;5.80;5.30;;;;;;;16.88;68.50;100712.75;1714274;81;21017;-92
2022/06/04 06:11:52;;;;;;;6.37;5.28;;;;;;;16.93;68.41;100713.31;1724859;81;21101;-88
2022/06/04 06:14:21;;;;;;;7.62;5.62;;;;;;;16.99;68.18;100715.63;1706049;81;21532;-86
2022/06/04 06:16:50;;;;;;;8.63;5.33;;;;;;;17.07;68.05;100723.97;1727939;81;21062;-82
2022/06/04 06:19:22;;;;;;;9.47;6.53;;;;;;;17.12;67.93;100717.90;1724509;81;21116;-88
2022/06/04 06:21:49;;;;;;;8.75;6.03;;;;;;;17.16;67.83;100716.80;1722426;81;21528;-93
2022/06/04 06:24:20;;;;;;;6.45;5.65;;;;;;;17.19;67.45;100728.16;1718519;81;21109;-93
2022/06/04 06:26:55;;;;;;;6.97;5.97;;;;;;;17.19;67.45;100728.16;1704798;81;21134;-93
2022/06/04 06:29:29;;;;;;;6.58;5.50;;;;;;;17.20;67.47;100727.20;1706684;83;21082;-92
2022/06/04 06:32:00;;;;;;;6.92;5.37;;;;;;;17.23;67.49;100730.98;1701267;83;21116;-82
2022/06/04 06:34:27;;;;;;;6.05;5.45;;;;;;;17.28;67.48;100727.60;1710751;81;21039;-82
2022/06/04 06:36:56;;;;;;;7.03;5.95;;;;;;;17.33;67.42;100725.05;1703777;82;21646;-92
2022/06/04 06:39:24;;;;;;;6.90;5.45;;;;;;;17.37;67.22;100719.94;1707316;81;21686;-82
2022/06/04 06:41:51;;;;;;;6.92;5.40;;;;;;;17.43;67.34;100711.23;1707080;82;21074;-83
2022/06/04 06:44:19;;;;;;;7.45;5.40;;;;;;;17.51;67.35;100709.83;1706488;81;21139;-88
2022/06/04 06:46:48;;;;;;;6.67;5.15;;;;;;;17.59;67.17;100698.77;1708470;81;21074;-92
2022/06/04 06:49:33;;;;;;;7.80;5.28;;;;;;;17.71;67.37;100708.63;1706868;81;21110;-83
2022/06/04 06:52:09;;;;;;;6.55;5.20;;;;;;;17.88;67.05;100707.60;1705705;82;21043;-93
2022/06/04 06:54:38;;;;;;;5.60;5.00;;;;;;;18.05;67.04;100711.84;1707331;81;21161;-86
2022/06/04 06:57:09;;;;;;;5.80;5.20;;;;;;;18.18;66.65;100718.08;1714393;81;21144;-84
2022/06/04 06:59:40;;;;;;;6.30;5.67;;;;;;;18.25;65.95;100715.39;1722935;81;21007;-91
2022/06/04 07:02:09;;;;;;;6.78;5.10;;;;;;;18.30;65.74;100720.41;1703902;81;21011;-82
2022/06/04 07:04:36;;;;;;;5.83;5.03;;;;;;;18.37;65.90;100722.19;1702888;82;28207;-82
2022/06/04 07:07:04;;;;;;;7.17;5.25;;;;;;;18.47;65.56;100733.92;1707004;82;21271;-82
2022/06/04 07:09:38;;;;;;;5.58;5.05;;;;;;;18.56;65.47;100733.80;1690817;82;21931;-82
2022/06/04 07:12:08;;;;;;;8.60;5.15;;;;;;;18.63;65.22;100734.63;1700704;81;21044;-93
2022/06/04 07:14:36;;;;;;;;;;;;;;;18.69;64.98;100734.22;1718924;81;21039;-93
2022/06/04 07:17:05;;;;;;;6.60;5.00;;;;;;;18.77;64.56;100727.61;1712407;81;20203;-88
2022/06/04 07:19:34;;;;;;;5.78;4.97;;;;;;;18.82;64.58;100733.47;1719448;81;20967;-91
2022/06/04 07:22:01;;;;;;;6.08;5.20;;;;;;;18.89;64.30;100726.77;1720688;81;21779;-82
2022/06/04 07:24:29;;;;;;;8.00;5.17;;;;;;;18.93;64.13;100721.65;1720575;82;21027;-86
2022/06/04 07:26:57;;;;;;;5.60;4.97;;;;;;;18.97;63.87;100728.45;1720297;81;20997;-90
2022/06/04 07:29:26;;;;;;;7.37;5.10;;;;;;;19.01;63.70;100734.39;1715917;83;21426;-88
2022/06/04 07:31:54;;;;;;;6.03;4.85;;;;;;;19.07;63.72;100735.34;1716055;83;23051;-87
2022/06/04 07:34:21;;;;;;;7.58;5.08;;;;;;;19.13;63.48;100739.75;1717729;83;21171;-84
2022/06/04 07:36:52;;;;;;;6.58;5.15;;;;;;;19.19;63.38;100745.13;1714520;83;21056;-89
2022/06/04 07:39:20;;;;;;;6.28;5.10;;;;;;;19.26;63.41;100747.75;1717579;83;21043;-85
2022/06/04 07:41:52;;;;;;;7.40;5.65;;;;;;;19.34;63.24;100745.42;1717053;83;21303;-87
2022/06/04 07:44:21;;;;;;;5.85;5.15;;;;;;;19.44;63.09;100740.31;1716292;83;21077;-88
2022/06/04 07:46:50;;;;;;;5.25;4.75;;;;;;;19.51;62.63;100734.96;1716979;83;21084;-85
2022/06/04 07:49:20;;;;;;;6.05;5.05;;;;;;;19.58;62.66;100729.57;1718194;83;21020;-85
2022/06/04 07:51:48;;;;;;;7.90;5.03;;;;;;;19.66;62.49;100734.88;1716468;83;21071;-83
2022/06/04 07:54:15;;;;;;;5.78;5.22;;;;;;;19.71;62.20;100740.25;1716245;83;21087;-85
2022/06/04 07:56:43;;;;;;;6.58;5.65;;;;;;;19.75;61.90;100741.72;1715875;83;21012;-83
2022/06/04 07:59:16;;;;;;;6.08;5.08;;;;;;;19.77;62.12;100746.95;1716132;83;21102;-81
2022/06/04 08:01:44;;;;;;;6.47;4.95;;;;;;;19.80;61.83;100748.91;1715725;83;21573;-82
2022/06/04 08:04:11;;;;;;;6.30;5.20;;;;;;;19.83;61.78;100745.18;1715846;83;21028;-88
2022/06/04 08:06:39;;;;;;;5.37;4.80;;;;;;;19.87;61.74;100740.48;1715733;83;21032;-88
2022/06/04 08:09:08;;;;;;;8.03;5.28;;;;;;;19.90;61.80;100738.94;1716186;82;21024;-86
2022/06/04 08:11:36;;;;;;;7.90;5.30;;;;;;;19.99;61.97;100735.65;1715817;83;21930;-85
2022/06/04 08:14:10;;;;;;;6.90;5.05;;;;;;;20.10;61.96;100737.55;1713613;82;21561;-86
2022/06/04 08:16:43;;;;;;;8.98;5.40;;;;;;;20.17;61.46;100737.45;1701942;82;21026;-87
2022/06/04 08:19:13;;;;;;;5.92;4.87;;;;;;;20.19;61.13;100732.40;1719695;83;21062;-87
2022/06/04 08:21:42;;;;;;;5.50;4.90;;;;;;;20.25;61.17;100737.75;1721251;83;26380;-84
2022/06/04 08:24:12;;;;;;;6.70;5.72;;;;;;;20.30;61.03;100737.44;1721117;83;21125;-88
2022/06/04 08:26:47;;;;;;;6.37;4.97;;;;;;;20.32;60.81;100739.52;1721178;83;21035;-85
2022/06/04 08:29:15;;;;;;;5.97;5.37;;;;;;;20.33;60.65;100735.87;1714079;82;21534;-83
2022/06/04 08:31:42;;;;;;;6.92;4.85;;;;;;;20.35;60.35;100738.80;1713328;83;21004;-84
2022/06/04 08:34:10;;;;;;;6.42;4.83;;;;;;;20.38;60.36;100742.57;1713355;83;21024;-83
2022/06/04 08:36:38;;;;;;;6.83;5.37;;;;;;;20.42;60.19;100743.19;1713353;83;21107;-84
2022/06/04 08:39:05;;;;;;;5.97;5.30;;;;;;;20.44;60.07;100754.09;1713320;83;21028;-83
2022/06/04 08:42:17;;;;;;;7.35;5.12;;;;;;;20.48;60.03;100750.75;1713173;83;21020;-84
2022/06/04 08:44:54;;;;;;;6.42;5.00;;;;;;;20.48;59.78;100748.94;1713309;83;21102;-86
2022/06/04 08:47:33;;;;;;;6.45;5.08;;;;;;;20.52;59.86;100747.38;1711987;83;21044;-83
2022/06/04 08:50:24;;;;;;;6.92;4.85;;;;;;;20.57;59.92;100754.58;1709236;82;21887;-87
2022/06/04 08:53:05;;;;;;;7.75;4.97;;;;;;;20.58;59.59;100757.60;1711165;83;21032;-86
2022/06/04 08:59:00;;;;;;;8.30;5.33;;;;;;;20.65;59.74;100762.86;1712759;83;21060;-85
2022/06/04 09:01:46;;;;;;;8.20;5.00;;;;;;;20.64;59.86;100764.65;1707906;83;21252;-88
2022/06/04 09:04:23;;;;;;;8.05;5.53;;;;;;;20.63;60.02;100773.61;1694353;83;21208;-87
2022/06/04 09:07:12;;;;;;;6.05;5.35;;;;;;;20.62;60.13;100774.59;1705063;82;21076;-87
2022/06/04 09:09:53;;;;;;;6.78;5.60;;;;;;;20.61;60.18;100778.68;1698305;83;21111;-85
2022/06/04 09:12:44;;;;;;;6.35;5.55;;;;;;;20.59;60.11;100783.26;1703928;83;21498;-86
2022/06/04 09:15:31;;;;;;;8.55;5.30;;;;;;;20.57;60.02;100782.55;1686735;83;21091;-87
2022/06/04 09:18:02;;;;;;;8.60;5.78;;;;;;;20.56;60.07;100785.66;1685693;83;21978;-85
2022/06/04 09:20:43;;;;;;;7.92;5.50;;;;;;;20.60;60.22;100792.97;1688312;83;21099;-86
2022/06/04 09:23:25;;;;;;;7.55;5.55;;;;;;;20.63;60.08;100788.75;1693910;83;21014;-82
2022/06/04 09:26:15;;;;;;;5.85;5.25;;;;;;;20.64;60.10;100792.61;1699752;83;21085;-85
2022/06/04 09:29:25;;;;;;;6.28;5.62;;;;;;;20.70;60.12;100796.19;1701602;82;21482;-87
2022/06/04 09:32:12;;;;;;;7.33;5.35;;;;;;;20.78;60.20;100796.09;1699474;82;21942;-90
2022/06/04 09:34:50;;;;;;;6.95;5.50;;;;;;;20.85;60.54;100802.19;1717025;82;21063;-93
2022/06/04 09:37:28;;;;;;;7.17;5.33;;;;;;;20.90;60.38;100797.86;1693574;83;21011;-94
2022/06/04 09:40:17;;;;;;;6.78;5.30;;;;;;;20.97;60.38;100795.58;1714533;83;21524;-92
2022/06/04 09:42:50;;;;;;;6.78;5.17;;;;;;;21.01;60.42;100796.58;1720321;83;21387;-93
2022/06/04 09:45:36;;;;;;;5.72;5.22;;;;;;;21.04;60.37;100801.68;1719364;83;21616;-91
2022/06/04 09:48:05;;;;;;;6.05;5.25;;;;;;;21.05;60.10;100806.03;1714610;83;21077;-92
2022/06/04 09:50:38;;;;;;;6.25;4.92;;;;;;;21.07;60.09;100801.45;1697346;83;20987;-92
2022/06/04 09:53:21;;;;;;;6.35;5.37;;;;;;;21.09;60.09;100800.86;1718701;82;21573;-92
2022/06/04 09:55:56;;;;;;;6.00;5.40;;;;;;;21.10;60.02;100809.21;1720650;83;21039;-92
2022/06/04 09:58:34;;;;;;;5.72;5.15;;;;;;;21.08;60.32;100808.47;1691655;83;21155;-93
2022/06/04 10:01:09;;;;;;;5.08;4.05;;;;;;;21.10;60.25;100811.03;1721198;83;21012;-93
2022/06/04 10:03:39;;;;;;;5.35;4.10;;;;;;;21.15;60.03;100815.05;1703482;83;20966;-92
2022/06/04 10:06:16;;;;;;;7.92;4.37;;;;;;;21.23;60.15;100818.48;1721305;83;21537;-92
2022/06/04 10:11:58;;;;;;;3.80;3.35;;;;;;;21.42;60.11;100822.44;1721191;83;21521;-92
2022/06/04 10:14:39;;;;;;;4.10;3.75;;;;;;;21.50;59.74;100818.22;1701549;83;21055;-92
2022/06/04 10:17:20;;;;;;;4.72;3.87;;;;;;;21.59;59.81;100820.20;1721294;83;21039;-92
2022/06/04 10:19:57;;;;;;;3.67;3.37;;;;;;;21.65;59.78;100824.22;1702200;83;21059;-93
2022/06/04 10:22:24;;;;;;;4.30;3.87;;;;;;;21.73;59.53;100832.48;1721128;83;21019;-93
2022/06/04 10:25:03;;;;;;;4.62;3.87;;;;;;;21.78;59.19;100831.65;1721461;83;21125;-92
2022/06/04 10:27:46;;;;;;;6.15;3.75;;;;;;;21.82;58.97;100832.25;1717065;82;21034;-93
2022/06/04 10:30:50;;;;;;;5.03;3.90;;;;;;;21.85;58.84;100835.17;1720407;82;21063;-92
2022/06/04 10:33:40;;;;;;;4.17;3.70;;;;;;;21.88;58.59;100830.92;1667887;83;21035;-92
2022/06/04 10:36:31;;;;;;;4.67;3.75;;;;;;;21.91;58.59;100834.20;1720135;82;21565;-92
2022/06/04 10:39:43;;;;;;;4.25;3.58;;;;;;;21.98;58.63;100835.92;1719787;83;21051;-91
2022/06/04 10:42:43;;;;;;;4.95;3.72;;;;;;;22.01;58.48;100826.34;1721090;83;21039;-94
2022/06/04 10:45:25;;;;;;;4.12;3.72;;;;;;;22.07;58.62;100826.34;1719554;82;21102;-93
2022/06/04 10:48:18;;;;;;;4.42;4.03;;;;;;;22.14;58.71;100830.20;1721084;82;21016;-92
2022/06/04 10:54:09;;;;;;;5.12;4.12;;;;;;;22.26;58.24;100830.13;1701441;83;21289;-92
2022/06/04 10:56:47;;;;;;;5.30;3.92;;;;;;;22.35;58.21;100829.88;1720470;82;21059;-92
2022/06/04 10:59:23;;;;;;;6.55;4.20;;;;;;;22.45;58.28;100832.68;1721025;83;21004;-93
2022/06/04 11:02:18;;;;;;;6.90;4.35;;;;;;;22.57;58.33;100838.36;1715287;82;21099;-92
2022/06/04 11:05:04;;;;;;;6.65;4.22;;;;;;;22.59;57.87;100841.77;1719976;82;21099;-92
2022/06/04 11:07:54;;;;;;;4.50;4.10;;;;;;;22.60;57.89;100834.11;1720366;83;21207;-91
2022/06/04 11:10:41;;;;;;;;;;;;;;;22.75;57.98;100839.17;1719511;83;21107;-92
2022/06/04 11:13:46;;;;;;;4.83;4.05;;;;;;;22.86;57.57;100837.81;1673031;85;20180;-92
2022/06/04 11:16:36;;;;;;;8.13;4.00;;;;;;;22.91;57.41;100834.28;1647364;86;21063;-93
2022/06/04 11:19:16;;;;;;;4.37;3.85;;;;;;;23.03;57.74;100844.47;1681200;85;21015;-92
2022/06/04 11:22:15;;;;;;;4.40;3.60;;;;;;;23.13;57.41;100835.56;1663100;86;21487;-93
2022/06/04 11:24:53;;;;;;;8.00;3.75;;;;;;;23.20;57.02;100831.08;1699067;82;20895;-85
2022/06/04 11:27:32;;;;;;;4.70;3.55;;;;;;;23.27;56.79;100837.09;1718224;82;21525;-87
2022/06/04 11:30:13;;;;;;;4.20;3.77;;;;;;;23.29;56.27;100835.15;1714854;82;21655;-92
2022/06/04 11:33:02;;;;;;;6.58;4.62;;;;;;;23.34;56.18;100837.45;1713759;82;21012;-90
2022/06/04 11:36:07;;;;;;;6.00;4.17;;;;;;;23.42;56.14;100837.66;1690237;83;21142;-90
2022/06/04 11:39:07;;;;;;;6.42;4.58;;;;;;;23.48;56.13;100839.80;1713484;83;21008;-90
2022/06/04 11:42:28;;;;;;;4.83;4.10;;;;;;;23.59;56.23;100842.42;1734149;82;21012;-85
2022/06/04 11:45:35;;;;;;;5.20;3.98;;;;;;;23.67;55.77;100837.77;1713300;83;21675;-87
2022/06/04 11:48:52;;;;;;;4.30;3.90;;;;;;;23.67;55.52;100837.77;1712732;83;21727;-85
2022/06/04 11:51:40;;;;;;;3.80;3.42;;;;;;;23.69;55.34;100835.78;1599969;87;21166;-88
2022/06/04 11:54:55;;;;;;;5.00;4.50;;;;;;;23.68;55.34;100828.74;1579616;88;21334;-88
2022/06/04 11:58:18;;;;;;;6.03;4.83;;;;;;;23.75;55.34;100833.97;1695693;83;21001;-88
2022/06/04 12:00:49;;;;;;;4.67;4.15;;;;;;;23.75;55.19;100827.28;1694231;83;21118;-90
2022/06/04 12:03:39;;;;;;;4.75;4.20;;;;;;;23.73;55.16;100826.56;1709235;82;21252;-89
2022/06/04 12:06:37;;;;;;;5.80;4.30;;;;;;;23.69;55.00;100822.89;1713590;83;21133;-90
2022/06/04 12:09:31;;;;;;;5.05;4.42;;;;;;;23.67;54.99;100827.55;1693907;83;21379;-84
2022/06/04 12:12:19;;;;;;;4.85;4.40;;;;;;;23.63;55.10;100828.77;1713152;82;21071;-84
2022/06/04 12:15:00;;;;;;;5.40;4.58;;;;;;;23.59;54.80;100827.70;1713587;83;20994;-84
2022/06/04 12:17:34;;;;;;;5.42;4.62;;;;;;;23.56;54.81;100827.97;1713604;83;21020;-86
2022/06/04 12:26:26;;;;;;;4.15;3.60;;;;;;;23.73;54.87;100817.19;1712038;83;21021;-82
2022/06/04 12:28:54;;;;;;;4.85;3.92;;;;;;;23.84;54.86;100808.73;1703456;82;21147;-90
2022/06/04 12:31:38;;;;;;;4.75;4.20;;;;;;;23.85;54.83;100816.62;1695960;83;21559;-89
2022/06/04 12:34:36;;;;;;;5.60;4.10;;;;;;;23.84;54.78;100816.27;1696040;83;21122;-84
2022/06/04 12:37:06;;;;;;;6.12;3.92;;;;;;;23.82;54.90;100815.55;1679804;83;21034;-88
2022/06/04 12:39:40;;;;;;;4.70;4.30;;;;;;;23.79;54.72;100823.34;1733503;81;21066;-87
2022/06/04 12:42:21;;;;;;;5.35;4.85;;;;;;;23.75;54.70;100829.09;1726638;83;21051;-84
2022/06/04 12:45:07;;;;;;;5.45;4.47;;;;;;;23.65;54.90;100827.67;1726726;81;21043;-86
2022/06/04 12:47:38;;;;;;;7.83;4.65;;;;;;;23.58;54.75;100830.03;1722002;81;21098;-85
2022/06/04 12:50:22;;;;;;;4.17;3.87;;;;;;;23.48;54.78;100825.09;1726485;81;21047;-84
2022/06/04 12:53:20;;;;;;;4.95;4.00;;;;;;;23.38;55.01;100837.04;1726584;83;21051;-87
2022/06/04 12:56:04;;;;;;;4.72;4.17;;;;;;;23.31;54.98;100841.23;1711142;81;21106;-85
2022/06/04 12:58:44;;;;;;;5.62;4.03;;;;;;;23.27;55.29;100836.25;1726102;81;21519;-86
2022/06/04 13:01:19;;;;;;;4.58;4.08;;;;;;;23.20;55.32;100831.91;1725127;81;21133;-82
2022/06/04 13:04:14;;;;;;;5.47;4.28;;;;;;;23.16;55.40;100836.65;1726408;81;21016;-83
2022/06/04 13:06:52;;;;;;;6.58;5.85;;;;;;;23.10;55.36;100838.50;1726802;81;21042;-82
2022/06/04 13:09:55;;;;;;;11.80;5.28;;;;;;;23.03;55.37;100837.79;1726540;81;21074;-90
2022/06/04 13:12:33;;;;;;;5.22;4.50;;;;;;;22.96;55.38;100838.80;1726447;81;21035;-90
2022/06/04 13:15:17;;;;;;;6.78;4.28;;;;;;;22.90;55.46;100839.27;1713045;83;21156;-90
2022/06/04 13:17:48;;;;;;;4.90;4.20;;;;;;;22.84;55.70;100837.95;1723043;83;21492;-91
2022/06/04 13:20:48;;;;;;;4.45;4.05;;;;;;;22.77;55.81;100843.91;1724886;81;21054;-90
2022/06/04 13:23:39;;;;;;;4.37;3.87;;;;;;;22.72;56.31;100846.95;1726802;83;21456;-90
2022/06/04 13:26:20;;;;;;;4.92;3.95;;;;;;;22.65;56.50;100845.27;1727010;81;21150;-91
2022/06/04 13:28:49;;;;;;;6.42;4.33;;;;;;;22.63;56.52;100845.03;1726492;81;21062;-92
2022/06/04 13:31:30;;;;;;;4.10;3.70;;;;;;;22.59;56.72;100854.28;1726568;81;21110;-92
2022/06/04 13:34:15;;;;;;;4.33;3.80;;;;;;;22.55;56.73;100859.49;1696662;83;21043;-91
2022/06/04 13:36:47;;;;;;;6.15;3.95;;;;;;;22.52;56.79;100853.06;1726509;81;21452;-93
2022/06/04 13:39:16;;;;;;;5.17;3.70;;;;;;;22.48;56.75;100857.81;1726389;81;21583;-92
2022/06/04 13:42:05;;;;;;;4.55;4.15;;;;;;;22.46;56.66;100850.39;1726529;83;21115;-91
2022/06/04 13:44:42;;;;;;;4.60;4.20;;;;;;;22.43;56.81;100857.32;1726645;83;20971;-90
2022/06/04 13:47:21;;;;;;;7.08;5.45;;;;;;;22.38;56.83;100853.67;1714638;83;21110;-92
2022/06/04 13:49:53;;;;;;;7.55;6.15;;;;;;;22.38;57.29;100856.83;1720531;83;21035;-91
2022/06/04 13:52:25;;;;;;;7.03;6.33;;;;;;;22.33;57.64;100851.00;1696886;83;21035;-91
2022/06/04 13:55:03;;;;;;;7.25;6.45;;;;;;;22.28;57.94;100863.38;1726877;81;21125;-91
2022/06/04 13:57:44;;;;;;;8.53;7.70;;;;;;;22.27;58.48;100864.35;1727051;83;21023;-92
2022/06/04 14:00:28;;;;;;;8.68;7.90;;;;;;;22.26;58.78;100867.52;1726559;81;21345;-91
2022/06/04 14:03:01;;;;;;;7.70;7.05;;;;;;;22.25;58.92;100872.96;1726964;83;21066;-93
2022/06/04 14:05:47;;;;;;;9.95;7.92;;;;;;;22.23;59.10;100872.26;1724280;81;21023;-92
2022/06/04 14:08:25;;;;;;;8.60;7.80;;;;;;;22.22;59.25;100866.04;1726428;83;21101;-94
2022/06/04 14:11:10;;;;;;;9.38;8.28;;;;;;;22.20;59.33;100866.67;1708112;81;21051;-91
2022/06/04 14:13:43;;;;;;;8.43;7.55;;;;;;;22.20;59.42;100868.00;1725633;81;21047;-92
2022/06/04 14:16:31;;;;;;;8.25;7.45;;;;;;;22.19;59.43;100868.95;1706134;81;21004;-91
2022/06/04 14:19:12;;;;;;;9.65;7.42;;;;;;;22.17;59.56;100858.88;1641780;87;21140;-90
2022/06/04 14:22:05;;;;;;;7.12;6.42;;;;;;;22.20;59.65;100861.33;1626142;88;21130;-91
2022/06/04 14:25:03;;;;;;;7.45;6.75;;;;;;;22.25;59.77;100864.95;1641934;87;21016;-91
2022/06/04 14:27:52;;;;;;;7.95;7.20;;;;;;;22.28;60.00;100862.03;1625610;87;21044;-91
2022/06/04 14:30:27;;;;;;;7.42;6.60;;;;;;;22.30;59.97;100854.77;1642994;87;21890;-91
2022/06/04 14:32:55;;;;;;;7.08;6.42;;;;;;;22.31;60.03;100850.27;1629974;86;21096;-90
2022/06/04 14:35:38;;;;;;;7.70;6.97;;;;;;;22.30;59.89;100855.25;1644445;85;21136;-91
2022/06/04 14:38:16;;;;;;;7.30;6.58;;;;;;;22.31;59.87;100860.95;1629979;88;21081;-92
2022/06/04 14:41:00;;;;;;;7.42;6.70;;;;;;;22.33;59.86;100866.53;1665778;84;21184;-92
2022/06/04 14:44:06;;;;;;;7.12;6.42;;;;;;;22.35;59.93;100861.08;1640207;86;37975;-89
2022/06/04 14:47:13;;;;;;;7.53;6.60;;;;;;;22.42;59.83;100858.27;1665360;84;21673;-91
2022/06/04 14:50:00;;;;;;;8.90;6.47;;;;;;;22.46;59.88;100851.23;1665401;84;21091;-90
2022/06/04 14:52:43;;;;;;;7.85;7.08;;;;;;;22.46;59.66;100849.06;1638698;84;21589;-90
2022/06/04 14:55:19;;;;;;;9.88;7.50;;;;;;;22.47;59.65;100858.77;1724757;80;21093;-90
2022/06/04 14:58:21;;;;;;;8.93;8.03;;;;;;;22.48;59.58;100859.14;1718573;82;20995;-91
2022/06/04 15:01:28;;;;;;;7.40;6.55;;;;;;;22.46;59.56;100851.23;1732450;82;21476;-90
2022/06/04 15:04:13;;;;;;;7.28;6.10;;;;;;;22.47;59.71;100853.42;1716247;83;21821;-90
2022/06/04 15:07:18;;;;;;;7.55;6.50;;;;;;;22.51;59.86;100854.05;1748483;82;21130;-89
2022/06/04 15:10:14;;;;;;;8.15;7.17;;;;;;;22.49;59.56;100848.32;1718627;82;21059;-89
2022/06/04 15:13:01;;;;;;;7.75;6.20;;;;;;;22.53;59.47;100845.40;1746407;80;21255;-93
2022/06/04 15:16:10;;;;;;;7.12;6.42;;;;;;;22.54;59.40;100841.28;1743827;81;21055;-83
2022/06/04 15:19:07;;;;;;;7.12;6.42;;;;;;;22.59;59.42;100848.94;1711974;81;21140;-89
2022/06/04 15:22:05;;;;;;;7.35;6.67;;;;;;;22.61;59.50;100851.82;1693259;83;20996;-93
2022/06/04 15:24:52;;;;;;;8.25;7.20;;;;;;;22.61;59.64;100855.83;1724489;81;21466;-93
2022/06/04 15:28:01;;;;;;;8.40;6.87;;;;;;;22.59;59.93;100852.45;1692289;84;21078;-89
2022/06/04 15:33:57;;;;;;;7.72;6.92;;;;;;;22.51;59.86;100848.21;1675360;83;21541;-90
2022/06/04 15:36:51;;;;;;;12.88;7.50;;;;;;;22.47;60.15;100848.08;1681110;83;20991;-93
2022/06/04 15:39:35;;;;;;;7.87;6.65;;;;;;;22.46;60.18;100845.05;1646311;85;21545;-84
2022/06/04 15:42:17;;;;;;;9.00;6.75;;;;;;;22.45;60.15;100849.55;1667574;83;21495;-93
2022/06/04 15:45:05;;;;;;;8.33;6.22;;;;;;;22.42;60.24;100849.80;1678322;84;21024;-95
2022/06/04 15:48:02;;;;;;;6.53;5.90;;;;;;;22.40;60.21;100845.55;1688415;85;21099;-94
2022/06/04 15:56:36;;;;;;;8.60;6.80;;;;;;;22.34;60.65;100844.22;1667489;83;21062;-86
2022/06/04 15:59:17;;;;;;;8.28;6.80;;;;;;;22.40;60.64;100848.22;1689098;83;21073;-86
2022/06/04 16:02:04;;;;;;;8.95;6.58;;;;;;;22.44;60.44;100842.48;1690068;83;21149;-87
2022/06/04 16:04:42;;;;;;;6.95;6.25;;;;;;;22.52;60.58;100837.88;1671561;84;21544;-85